createdAt,value
2017-07-24T00:01:07.191Z,4.07
2017-07-24T00:03:36.534Z,5.00
2017-07-24T00:06:11.760Z,4.50
2017-07-24T00:08:41.491Z,4.00
2017-07-24T00:11:10.400Z,6.50
2017-07-24T00:13:39.291Z,3.67
2017-07-24T00:16:09.531Z,3.30
2017-07-24T00:18:39.169Z,3.23
2017-07-24T00:21:08.944Z,4.93
2017-07-24T00:23:38.312Z,4.43
2017-07-24T00:26:10.103Z,3.23
2017-07-24T00:28:40.174Z,2.83
2017-07-24T00:31:10.130Z,3.50
2017-07-24T00:33:39.233Z,3.60
2017-07-24T00:36:08.989Z,8.07
2017-07-24T00:38:39.236Z,6.30
2017-07-24T00:41:09.519Z,3.20
2017-07-24T00:43:39.419Z,2.93
2017-07-24T00:46:09.368Z,3.43
2017-07-24T00:48:38.803Z,6.10
2017-07-24T00:51:09.267Z,3.00
2017-07-24T00:53:41.157Z,4.50
2017-07-24T00:56:12.032Z,4.63
2017-07-24T00:58:43.992Z,3.53
2017-07-24T01:01:24.060Z,3.70
2017-07-24T01:03:55.079Z,5.00
2017-07-24T01:06:27.373Z,4.07
2017-07-24T01:08:57.871Z,3.40
2017-07-24T01:11:28.352Z,3.30
2017-07-24T01:16:47.770Z,3.50
2017-07-24T01:22:10.110Z,6.50
2017-07-24T01:24:41.770Z,3.07
2017-07-24T01:27:16.118Z,4.00
2017-07-24T01:29:46.210Z,3.03
2017-07-24T01:32:16.734Z,3.03
2017-07-24T01:34:46.611Z,3.23
2017-07-24T01:37:33.236Z,3.10
2017-07-24T01:40:06.962Z,2.90
2017-07-24T01:42:36.514Z,3.27
2017-07-24T01:45:10.522Z,3.87
2017-07-24T01:47:45.756Z,2.90
2017-07-24T01:50:16.407Z,2.77
2017-07-24T01:52:46.249Z,2.33
2017-07-24T01:55:29.234Z,2.63
2017-07-24T01:57:59.743Z,3.20
2017-07-24T02:00:29.602Z,5.43
2017-07-24T02:03:00.648Z,3.60
2017-07-24T02:05:32.545Z,2.70
2017-07-24T02:08:04.332Z,3.63
2017-07-24T02:10:37.313Z,3.10
2017-07-24T02:13:26.021Z,3.10
2017-07-24T02:15:59.485Z,4.13
2017-07-24T02:18:39.422Z,3.80
2017-07-24T02:21:10.887Z,4.03
2017-07-24T02:23:42.651Z,4.90
2017-07-24T02:26:24.592Z,4.40
2017-07-24T02:31:39.111Z,2.97
2017-07-24T02:34:08.786Z,4.07
2017-07-24T02:36:38.463Z,3.67
2017-07-24T02:39:08.465Z,5.03
2017-07-24T02:46:59.266Z,4.43
2017-07-24T02:49:36.375Z,4.00
2017-07-24T02:52:08.055Z,3.63
2017-07-24T02:57:32.853Z,5.17
2017-07-24T03:00:02.868Z,6.40
2017-07-24T03:02:34.549Z,4.30
2017-07-24T03:05:04.822Z,5.67
2017-07-24T03:07:35.247Z,3.50
2017-07-24T03:10:05.547Z,3.20
2017-07-24T03:12:36.126Z,3.33
2017-07-24T03:15:06.936Z,5.50
2017-07-24T03:17:36.649Z,3.33
2017-07-24T03:20:06.446Z,3.97
2017-07-24T03:22:36.115Z,5.47
2017-07-24T03:25:06.612Z,3.23
2017-07-24T03:27:36.412Z,3.30
2017-07-24T03:30:06.752Z,2.77
2017-07-24T03:32:36.426Z,3.07
2017-07-24T03:35:06.362Z,4.13
2017-07-24T03:37:36.107Z,2.50
2017-07-24T03:40:06.089Z,6.63
2017-07-24T03:42:36.589Z,5.20
2017-07-24T03:45:06.243Z,2.77
2017-07-24T03:47:37.111Z,3.10
2017-07-24T03:50:07.376Z,5.70
2017-07-24T03:52:38.334Z,3.50
2017-07-24T03:55:07.977Z,3.90
2017-07-24T03:57:37.213Z,3.33
2017-07-24T04:00:06.871Z,2.80
2017-07-24T04:02:41.355Z,3.13
2017-07-24T04:05:16.333Z,2.97
2017-07-24T04:07:46.698Z,3.70
2017-07-24T04:10:28.862Z,3.60
2017-07-24T04:13:02.125Z,3.10
2017-07-24T04:15:37.930Z,3.10
2017-07-24T04:18:09.664Z,4.07
2017-07-24T04:20:40.124Z,5.30
2017-07-24T04:23:09.979Z,4.43
2017-07-24T04:25:39.602Z,4.20
2017-07-24T04:28:09.476Z,5.60
2017-07-24T04:30:39.258Z,5.10
2017-07-24T04:33:10.336Z,4.10
2017-07-24T04:35:40.036Z,6.50
2017-07-24T04:38:11.302Z,3.97
2017-07-24T04:40:40.732Z,3.30
2017-07-24T04:43:11.098Z,4.77
2017-07-24T04:45:41.135Z,4.47
2017-07-24T04:48:10.986Z,5.80
2017-07-24T04:50:40.993Z,9.37
2017-07-24T04:53:11.312Z,59.37
2017-07-24T04:55:40.701Z,250.90
2017-07-24T04:58:10.787Z,175.07
2017-07-24T05:00:40.603Z,287.00
2017-07-24T05:03:10.456Z,167.83
2017-07-24T05:05:40.509Z,173.37
2017-07-24T05:08:10.084Z,99.80
2017-07-24T05:10:40.059Z,27.83
2017-07-24T05:13:10.235Z,417.77
2017-07-24T05:15:40.004Z,159.70
2017-07-24T05:18:10.801Z,374.50
2017-07-24T05:20:42.846Z,170.67
2017-07-24T05:23:13.975Z,282.50
2017-07-24T05:25:44.474Z,20.00
2017-07-24T05:28:15.749Z,11.50
2017-07-24T05:30:46.925Z,16.53
2017-07-24T05:33:16.823Z,6.33
2017-07-24T05:35:46.816Z,6.50
2017-07-24T05:38:16.903Z,7.63
2017-07-24T05:40:46.511Z,11.00
2017-07-24T05:43:16.765Z,6.50
2017-07-24T05:45:46.491Z,5.20
2017-07-24T05:48:16.100Z,6.30
2017-07-24T05:50:46.039Z,7.93
2017-07-24T05:53:16.040Z,4.23
2017-07-24T05:55:47.351Z,5.30
2017-07-24T05:58:19.942Z,5.47
2017-07-24T06:00:50.513Z,3.40
2017-07-24T06:03:25.149Z,5.63
2017-07-24T06:05:55.212Z,4.10
2017-07-24T06:08:24.544Z,6.33
2017-07-24T06:10:54.043Z,3.00
2017-07-24T06:13:26.106Z,10.77
2017-07-24T06:15:56.024Z,6.10
2017-07-24T06:18:26.506Z,6.47
2017-07-24T06:20:56.580Z,5.67
2017-07-24T06:23:27.098Z,4.93
2017-07-24T06:26:01.347Z,6.17
2017-07-24T06:28:31.199Z,4.63
2017-07-24T06:31:01.063Z,8.30
2017-07-24T06:33:30.723Z,3.83
2017-07-24T06:36:01.506Z,6.57
2017-07-24T06:38:31.395Z,8.10
2017-07-24T06:42:25.224Z,5.10
2017-07-24T06:44:55.530Z,5.73
2017-07-24T06:47:27.124Z,4.60
2017-07-24T06:49:57.459Z,5.10
2017-07-24T06:52:27.508Z,7.83
2017-07-24T06:54:56.794Z,4.60
2017-07-24T06:57:27.489Z,3.80
2017-07-24T06:59:57.311Z,5.80
2017-07-24T07:02:27.556Z,2.90
2017-07-24T07:04:57.081Z,3.67
2017-07-24T07:07:26.814Z,3.03
2017-07-24T07:09:56.965Z,2.87
2017-07-24T07:12:30.783Z,3.33
2017-07-24T07:15:00.605Z,3.30
2017-07-24T07:17:29.740Z,3.40
2017-07-24T07:19:59.635Z,2.57
2017-07-24T07:22:30.154Z,3.03
2017-07-24T07:24:59.451Z,4.50
2017-07-24T07:27:29.498Z,2.50
2017-07-24T07:29:59.397Z,3.63
2017-07-24T07:32:29.719Z,5.73
2017-07-24T07:34:59.914Z,5.00
2017-07-24T07:37:29.871Z,3.50
2017-07-24T07:40:00.100Z,2.17
2017-07-24T07:42:30.284Z,2.10
2017-07-24T07:44:59.777Z,3.40
2017-07-24T07:47:28.916Z,3.43
2017-07-24T07:49:58.789Z,2.30
2017-07-24T07:52:28.953Z,5.00
2017-07-24T07:54:58.042Z,4.70
2017-07-24T07:57:27.782Z,4.50
2017-07-24T07:59:57.306Z,5.47
2017-07-24T08:02:28.174Z,4.50
2017-07-24T08:04:57.540Z,4.53
2017-07-24T08:07:27.545Z,4.50
2017-07-24T08:09:57.124Z,5.37
2017-07-24T08:12:27.551Z,4.03
2017-07-24T08:14:57.096Z,1.70
2017-07-24T08:17:27.651Z,4.07
2017-07-24T08:19:57.165Z,1.73
2017-07-24T08:22:27.091Z,2.37
2017-07-24T08:24:56.253Z,2.50
2017-07-24T08:27:27.500Z,3.67
2017-07-24T08:29:56.903Z,4.80
2017-07-24T08:32:27.552Z,2.30
2017-07-24T08:34:57.125Z,3.20
2017-07-24T08:37:26.784Z,5.73
2017-07-24T08:39:56.714Z,3.70
2017-07-24T08:42:27.805Z,6.00
2017-07-24T08:44:58.664Z,3.63
2017-07-24T08:47:28.539Z,4.90
2017-07-24T08:49:58.755Z,3.63
2017-07-24T08:52:27.763Z,2.57
2017-07-24T08:54:57.618Z,4.60
2017-07-24T08:57:29.122Z,4.13
2017-07-24T08:59:58.342Z,5.33
2017-07-24T09:02:27.643Z,3.27
2017-07-24T09:04:57.394Z,2.50
2017-07-24T09:07:26.743Z,3.50
2017-07-24T09:09:57.072Z,4.70
2017-07-24T09:12:28.074Z,3.53
2017-07-24T09:14:58.485Z,4.67
2017-07-24T09:17:28.796Z,2.30
2017-07-24T09:19:58.278Z,8.60
2017-07-24T09:22:29.157Z,5.73
2017-07-24T09:24:58.568Z,4.53
2017-07-24T09:27:29.566Z,5.80
2017-07-24T09:29:59.054Z,5.60
2017-07-24T09:32:29.679Z,2.40
2017-07-24T09:34:58.770Z,3.30
2017-07-24T09:37:28.611Z,4.57
2017-07-24T09:39:58.025Z,2.43
2017-07-24T09:42:33.694Z,3.97
2017-07-24T09:45:03.611Z,1.93
2017-07-24T09:47:33.141Z,4.10
2017-07-24T09:50:03.897Z,2.57
2017-07-24T09:52:33.461Z,2.63
2017-07-24T09:55:04.223Z,2.47
2017-07-24T09:57:34.143Z,2.60
2017-07-24T10:00:03.917Z,2.00
2017-07-24T10:02:38.288Z,5.70
2017-07-24T10:05:08.237Z,2.40
2017-07-24T10:07:38.152Z,3.23
2017-07-24T10:10:08.187Z,3.13
2017-07-24T10:12:37.304Z,5.10
2017-07-24T10:15:06.765Z,4.50
2017-07-24T10:17:35.924Z,2.50
2017-07-24T10:20:05.915Z,3.60
2017-07-24T10:22:35.016Z,4.10
2017-07-24T10:25:05.646Z,3.97
2017-07-24T10:27:35.585Z,3.83
2017-07-24T10:30:05.171Z,2.67
2017-07-24T10:32:34.295Z,5.63
2017-07-24T10:35:03.633Z,2.53
2017-07-24T10:37:33.486Z,2.47
2017-07-24T10:40:02.857Z,3.17
2017-07-24T10:42:32.198Z,3.57
2017-07-24T10:45:01.404Z,3.30
2017-07-24T10:47:30.789Z,3.00
2017-07-24T10:49:59.987Z,2.63
2017-07-24T10:52:30.617Z,2.50
2017-07-24T10:54:59.817Z,1.87
2017-07-24T10:57:29.029Z,2.50
2017-07-24T11:00:05.751Z,1.70
2017-07-24T11:02:35.045Z,2.67
2017-07-24T11:05:04.514Z,3.57
2017-07-24T11:07:34.051Z,2.23
2017-07-24T11:10:03.728Z,3.33
2017-07-24T11:12:33.855Z,3.47
2017-07-24T11:15:03.365Z,3.63
2017-07-24T11:17:32.868Z,3.17
2017-07-24T11:20:02.110Z,6.07
2017-07-24T11:22:31.622Z,4.17
2017-07-24T11:25:03.224Z,2.40
2017-07-24T11:27:32.855Z,2.83
2017-07-24T11:30:02.173Z,3.10
2017-07-24T11:32:31.628Z,4.63
2017-07-24T11:35:01.194Z,4.03
2017-07-24T11:37:30.594Z,2.70
2017-07-24T11:40:00.507Z,4.50
2017-07-24T11:42:30.494Z,5.77
2017-07-24T11:44:59.840Z,2.93
2017-07-24T11:47:29.014Z,3.80
2017-07-24T11:49:58.167Z,3.30
2017-07-24T11:52:28.308Z,3.40
2017-07-24T11:54:57.457Z,4.27
2017-07-24T11:57:27.364Z,4.17
2017-07-24T11:59:56.513Z,4.63
2017-07-24T12:02:26.421Z,5.67
2017-07-24T12:04:55.512Z,2.90
2017-07-24T12:07:26.347Z,3.33
2017-07-24T12:09:55.465Z,4.20
2017-07-24T12:12:25.214Z,3.33
2017-07-24T12:14:54.384Z,6.80
2017-07-24T12:17:24.491Z,3.97
2017-07-24T12:19:53.577Z,4.87
2017-07-24T12:22:24.348Z,4.00
2017-07-24T12:24:54.084Z,3.60
2017-07-24T12:27:24.838Z,2.90
2017-07-24T12:29:54.171Z,7.43
2017-07-24T12:32:23.503Z,4.30
2017-07-24T12:34:52.582Z,8.33
2017-07-24T12:37:24.953Z,3.27
2017-07-24T12:39:54.188Z,3.03
2017-07-24T12:42:25.863Z,3.43
2017-07-24T12:44:55.207Z,3.20
2017-07-24T12:47:25.558Z,5.53
2017-07-24T12:49:55.145Z,4.20
2017-07-24T12:52:25.980Z,4.03
2017-07-24T12:54:56.046Z,3.10
2017-07-24T12:57:28.340Z,2.70
2017-07-24T12:59:57.507Z,4.93
2017-07-24T13:02:26.780Z,2.83
2017-07-24T13:04:56.327Z,3.13
2017-07-24T13:07:28.205Z,3.37
2017-07-24T13:09:58.047Z,4.17
2017-07-24T13:12:27.543Z,4.13
2017-07-24T13:14:56.647Z,2.63
2017-07-24T13:17:26.000Z,4.60
2017-07-24T13:19:55.056Z,4.43
2017-07-24T13:22:26.620Z,4.83
2017-07-24T13:24:55.818Z,2.83
2017-07-24T13:27:26.325Z,3.07
2017-07-24T13:29:55.417Z,2.73
2017-07-24T13:32:30.577Z,3.13
2017-07-24T13:34:59.664Z,5.43
2017-07-24T13:37:29.192Z,3.20
2017-07-24T13:39:58.373Z,4.03
2017-07-24T13:42:27.682Z,2.70
2017-07-24T13:44:57.556Z,3.10
2017-07-24T13:47:26.694Z,3.43
2017-07-24T13:49:55.702Z,5.03
2017-07-24T13:52:24.706Z,4.40
2017-07-24T13:54:53.877Z,2.97
2017-07-24T13:57:23.390Z,3.83
2017-07-24T13:59:52.497Z,3.70
2017-07-24T14:02:22.630Z,3.10
2017-07-24T14:04:51.879Z,3.80
2017-07-24T14:07:26.815Z,3.10
2017-07-24T14:09:55.931Z,3.90
2017-07-24T14:12:26.360Z,2.40
2017-07-24T14:14:55.448Z,4.63
2017-07-24T14:17:25.547Z,4.10
2017-07-24T14:19:54.799Z,5.27
2017-07-24T14:22:23.936Z,3.00
2017-07-24T14:24:53.075Z,3.23
2017-07-24T14:27:24.643Z,3.27
2017-07-24T14:29:53.660Z,3.30
2017-07-24T14:32:22.873Z,3.03
2017-07-24T14:34:52.325Z,3.03
2017-07-24T14:37:25.390Z,3.47
2017-07-24T14:39:54.497Z,3.60
2017-07-24T14:42:24.345Z,2.93
2017-07-24T14:44:53.770Z,324.33
2017-07-24T14:47:23.687Z,1160.50
2017-07-24T14:49:52.865Z,508.57
2017-07-24T14:52:24.829Z,342.20
2017-07-24T14:54:54.362Z,293.20
2017-07-24T14:57:25.649Z,230.13
2017-07-24T14:59:54.820Z,199.17
2017-07-24T15:02:24.158Z,418.57
2017-07-24T15:04:53.406Z,587.07
2017-07-24T15:07:25.613Z,513.47
2017-07-24T15:09:54.777Z,1214.03
2017-07-24T15:12:25.494Z,448.40
2017-07-24T15:14:55.152Z,541.50
2017-07-24T15:17:25.849Z,346.63
2017-07-24T15:19:55.180Z,337.27
2017-07-24T15:22:24.815Z,545.37
2017-07-24T15:24:54.008Z,430.67
2017-07-24T15:27:25.490Z,319.63
2017-07-24T15:29:55.570Z,531.30
2017-07-24T15:32:26.437Z,210.60
2017-07-24T15:34:55.568Z,163.43
2017-07-24T15:37:28.361Z,207.60
2017-07-24T15:39:58.376Z,472.60
2017-07-24T15:42:27.812Z,638.40
2017-07-24T15:44:57.507Z,913.57
2017-07-24T15:47:27.631Z,1708.83
2017-07-24T15:49:57.150Z,457.50
2017-07-24T15:52:28.093Z,229.40
2017-07-24T15:54:57.168Z,364.20
2017-07-24T15:57:27.149Z,573.93
2017-07-24T15:59:56.628Z,404.93
2017-07-24T16:02:28.420Z,477.17
2017-07-24T16:04:57.624Z,350.23
2017-07-24T16:07:27.400Z,426.33
2017-07-24T16:09:57.079Z,505.33
2017-07-24T16:12:26.678Z,377.47
2017-07-24T16:14:56.147Z,364.23
2017-07-24T16:17:26.318Z,313.03
2017-07-24T16:19:55.875Z,256.67
2017-07-24T16:22:26.862Z,209.20
2017-07-24T16:24:56.169Z,194.77
2017-07-24T16:27:26.899Z,164.80
2017-07-24T16:29:57.154Z,150.03
2017-07-24T16:32:30.630Z,703.27
2017-07-24T16:34:59.717Z,118.47
2017-07-24T16:37:29.248Z,428.67
2017-07-24T16:39:58.397Z,83.17
2017-07-24T16:42:31.392Z,282.53
2017-07-24T16:45:00.812Z,84.70
2017-07-24T16:47:29.963Z,58.23
2017-07-24T16:49:59.108Z,49.30
2017-07-24T16:52:29.121Z,39.30
2017-07-24T16:54:58.701Z,50.03
2017-07-24T16:57:28.717Z,39.57
2017-07-24T16:59:58.453Z,36.67
2017-07-24T17:02:27.860Z,850.27
2017-07-24T17:04:56.962Z,388.37
2017-07-24T17:07:27.026Z,63.27
2017-07-24T17:09:56.325Z,29.67
2017-07-24T17:12:26.604Z,24.87
2017-07-24T17:14:56.140Z,40.40
2017-07-24T17:17:26.058Z,1282.27
2017-07-24T17:19:55.185Z,1013.90
2017-07-24T17:22:27.148Z,408.67
2017-07-24T17:24:56.358Z,275.33
2017-07-24T17:27:26.743Z,251.37
2017-07-24T17:29:56.444Z,204.80
2017-07-24T17:32:27.211Z,154.37
2017-07-24T17:34:56.744Z,114.17
2017-07-24T17:37:26.923Z,112.03
2017-07-24T17:39:56.134Z,94.20
2017-07-24T17:42:26.091Z,59.77
2017-07-24T17:44:55.555Z,54.50
2017-07-24T17:47:26.548Z,48.03
2017-07-24T17:49:55.725Z,41.53
2017-07-24T17:52:27.050Z,32.30
2017-07-24T17:54:57.619Z,199.97
2017-07-24T17:57:27.144Z,654.70
2017-07-24T17:59:57.025Z,400.70
2017-07-24T18:02:26.228Z,291.23
2017-07-24T18:04:56.634Z,193.50
2017-07-24T18:07:26.552Z,161.53
2017-07-24T18:09:55.832Z,137.67
2017-07-24T18:12:25.642Z,112.23
2017-07-24T18:14:55.619Z,660.70
2017-07-24T18:17:24.808Z,97.47
2017-07-24T18:19:54.403Z,65.77
2017-07-24T18:22:25.239Z,51.47
2017-07-24T18:24:54.455Z,275.87
2017-07-24T18:27:25.939Z,463.43
2017-07-24T18:29:55.338Z,88.40
2017-07-24T18:32:26.076Z,30.13
2017-07-24T18:34:55.154Z,27.73
2017-07-24T18:37:27.398Z,24.83
2017-07-24T18:39:56.461Z,21.70
2017-07-24T18:42:27.137Z,17.87
2017-07-24T18:44:56.567Z,185.17
2017-07-24T18:47:27.209Z,23.90
2017-07-24T18:49:56.323Z,14.70
2017-07-24T18:52:26.352Z,219.63
2017-07-24T18:54:55.561Z,249.27
2017-07-24T18:57:25.907Z,18.87
2017-07-24T18:59:59.070Z,8.63
2017-07-24T19:02:28.216Z,6.23
2017-07-24T19:04:57.440Z,5.60
2017-07-24T19:07:28.062Z,728.80
2017-07-24T19:09:57.409Z,605.27
2017-07-24T19:12:27.180Z,471.47
2017-07-24T19:14:56.780Z,251.97
2017-07-24T19:17:26.226Z,197.47
2017-07-24T19:19:56.726Z,182.67
2017-07-24T19:22:25.910Z,132.93
2017-07-24T19:24:55.598Z,92.50
2017-07-24T19:27:24.747Z,76.90
2017-07-24T19:29:54.125Z,61.93
2017-07-24T19:32:26.374Z,50.80
2017-07-24T19:34:56.839Z,41.47
2017-07-24T19:37:27.812Z,41.60
2017-07-24T19:39:58.178Z,38.80
2017-07-24T19:42:28.016Z,34.10
2017-07-24T19:44:57.427Z,26.60
2017-07-24T19:47:28.345Z,17.57
2017-07-24T19:49:57.583Z,57.80
2017-07-24T19:52:27.144Z,46.53
2017-07-24T19:54:56.276Z,10.53
2017-07-24T19:57:25.643Z,279.93
2017-07-24T19:59:55.094Z,210.27
2017-07-24T20:02:25.830Z,156.17
2017-07-24T20:04:54.914Z,66.47
2017-07-24T20:07:25.918Z,59.70
2017-07-24T20:09:55.102Z,31.37
2017-07-24T20:12:24.561Z,31.10
2017-07-24T20:14:53.857Z,13.83
2017-07-24T20:17:23.736Z,12.53
2017-07-24T20:19:53.233Z,6.07
2017-07-24T20:22:23.148Z,5.67
2017-07-24T20:24:52.368Z,4.60
2017-07-24T20:27:24.114Z,3.03
2017-07-24T20:29:53.416Z,2.20
2017-07-24T20:32:24.371Z,5.13
2017-07-24T20:34:54.074Z,2.53
2017-07-24T20:37:25.865Z,4.90
2017-07-24T20:39:55.147Z,1.10
2017-07-24T20:42:24.285Z,3.63
2017-07-24T20:44:53.508Z,3.70
2017-07-24T20:47:25.199Z,3.83
2017-07-24T20:49:54.843Z,2.03
2017-07-24T20:52:24.976Z,1.13
2017-07-24T20:54:55.257Z,0.80
2017-07-24T20:57:26.379Z,1.13
2017-07-24T20:59:55.763Z,37.60
2017-07-24T21:02:25.911Z,335.00
2017-07-24T21:04:55.822Z,409.53
2017-07-24T21:07:26.088Z,139.47
2017-07-24T21:09:55.281Z,70.53
2017-07-24T21:12:25.462Z,45.90
2017-07-24T21:14:56.104Z,30.73
2017-07-24T21:17:26.321Z,18.57
2017-07-24T21:19:55.886Z,12.20
2017-07-24T21:22:25.314Z,10.93
2017-07-24T21:24:54.356Z,13.03
2017-07-24T21:27:25.407Z,4.60
2017-07-24T21:29:54.494Z,3.77
2017-07-24T21:32:23.864Z,2.40
2017-07-24T21:34:53.801Z,4.83
2017-07-24T21:37:23.229Z,2.93
2017-07-24T21:39:52.486Z,6.37
2017-07-24T21:42:22.840Z,1.97
2017-07-24T21:44:51.969Z,6.17
2017-07-24T21:47:27.995Z,4.13
2017-07-24T21:49:57.261Z,2.17
2017-07-24T21:52:27.148Z,3.43
2017-07-24T21:54:56.697Z,4.43
2017-07-24T21:57:26.532Z,217.63
2017-07-24T21:59:55.754Z,271.13
2017-07-24T22:02:25.957Z,206.30
2017-07-24T22:04:55.070Z,107.77
2017-07-24T22:07:25.567Z,70.23
2017-07-24T22:09:56.905Z,40.03
2017-07-24T22:12:31.080Z,32.10
2017-07-24T22:15:03.745Z,20.30
2017-07-24T22:17:33.174Z,11.80
2017-07-24T22:20:03.125Z,10.30
2017-07-24T22:22:32.398Z,9.47
2017-07-24T22:25:02.656Z,5.53
2017-07-24T22:27:31.765Z,5.30
2017-07-24T22:30:01.873Z,3.63
2017-07-24T22:32:31.599Z,2.77
2017-07-24T22:35:00.786Z,9.03
2017-07-24T22:37:39.879Z,2.03
2017-07-24T22:40:24.747Z,5.10
2017-07-24T22:42:54.015Z,5.80
2017-07-24T22:45:25.159Z,6.73
2017-07-24T22:47:54.784Z,6.63
2017-07-24T22:50:23.832Z,2.20
2017-07-24T22:52:54.143Z,5.50
2017-07-24T22:55:25.930Z,8.83
2017-07-24T22:57:55.104Z,1.63
2017-07-24T23:00:25.521Z,4.20
2017-07-24T23:02:54.972Z,1.60
2017-07-24T23:05:26.497Z,2.70
2017-07-24T23:07:56.328Z,1.17
2017-07-24T23:10:25.477Z,3.50
2017-07-24T23:12:55.162Z,3.17
2017-07-24T23:15:25.384Z,1.47
2017-07-24T23:17:54.980Z,1.57
2017-07-24T23:20:24.520Z,4.10
2017-07-24T23:22:53.587Z,7.87
2017-07-24T23:25:26.284Z,5.90
2017-07-24T23:27:55.526Z,2.03
2017-07-24T23:30:25.799Z,1.00
2017-07-24T23:32:54.917Z,1.43
2017-07-24T23:35:25.720Z,1.13
2017-07-24T23:37:55.316Z,1.70
2017-07-24T23:40:25.995Z,0.80
2017-07-24T23:42:55.535Z,1.40
2017-07-24T23:45:25.486Z,1.57
2017-07-24T23:47:54.569Z,1.37
2017-07-24T23:50:24.038Z,1.87
2017-07-24T23:52:53.152Z,0.97
2017-07-24T23:55:23.540Z,2.70
2017-07-24T23:57:52.661Z,2.53
